Time,TemperatureF,DewpointF,PressureIn,WindDirection,WindDirectionDegrees,WindSpeedMPH,WindSpeedGustMPH,Humidity,HourlyPrecipIn,Conditions,Clouds,dailyrainin,SoftwareType,DateUTC
2013-09-19 00:00:00,55.0,49.3,30.15,SW,215,0.0,0.0,81,0.00,,---,0.00,VWS V14.01,2013-09-19 04:00:00,
2013-09-19 00:05:00,54.7,49.3,30.15,SW,215,0.0,0.0,82,0.00,,---,0.00,VWS V14.01,2013-09-19 04:05:00,
2013-09-19 00:10:00,54.3,48.9,30.15,SW,215,0.0,0.0,82,0.00,,---,0.00,VWS V14.01,2013-09-19 04:10:00,
2013-09-19 00:15:00,54.0,49.0,30.15,SW,215,0.0,0.0,83,0.00,,---,0.00,VWS V14.01,2013-09-19 04:15:00,
2013-09-19 00:20:00,53.7,49.0,30.15,SW,215,0.0,0.0,84,0.00,,---,0.00,VWS V14.01,2013-09-19 04:20:00,
2013-09-19 00:25:00,53.4,49.0,30.15,SW,215,0.0,0.0,85,0.00,,---,0.00,VWS V14.01,2013-09-19 04:25:00,
2013-09-19 00:30:00,53.1,48.7,30.15,SW,215,0.0,0.0,85,0.00,,---,0.00,VWS V14.01,2013-09-19 04:30:00,
2013-09-19 00:35:00,52.9,48.5,30.15,SW,215,0.0,0.0,85,0.00,,---,0.00,VWS V14.01,2013-09-19 04:35:00,
2013-09-19 00:40:00,52.6,48.5,30.15,SW,215,0.0,0.0,86,0.00,,---,0.00,VWS V14.01,2013-09-19 04:40:00,
2013-09-19 00:45:00,52.4,48.3,30.15,SW,215,0.0,0.0,86,0.00,,---,0.00,VWS V14.01,2013-09-19 04:45:00,
2013-09-19 00:50:00,52.2,48.5,30.15,SW,215,0.0,0.0,87,0.00,,---,0.00,VWS V14.01,2013-09-19 04:50:00,
2013-09-19 00:55:00,52.0,48.3,30.15,SW,215,0.0,0.0,87,0.00,,---,0.00,VWS V14.01,2013-09-19 04:55:00,
2013-09-19 01:00:00,51.8,48.1,30.15,SW,215,0.0,0.0,87,0.00,,---,0.00,VWS V14.01,2013-09-19 05:00:00,
2013-09-19 01:05:00,51.6,48.2,30.15,SW,215,0.0,0.0,88,0.00,,---,0.00,VWS V14.01,2013-09-19 05:05:00,
2013-09-19 01:10:00,51.4,48.0,30.14,SW,215,0.0,0.0,88,0.00,,---,0.00,VWS V14.01,2013-09-19 05:10:00,
2013-09-19 01:15:00,51.3,48.2,30.14,WSW,244,0.0,1.0,89,0.00,,---,0.00,VWS V14.01,2013-09-19 05:15:00,
2013-09-19 01:20:00,51.2,48.1,30.14,WSW,244,0.0,0.0,89,0.00,,---,0.00,VWS V14.01,2013-09-19 05:20:00,
2013-09-19 01:25:00,51.0,47.9,30.14,WSW,244,0.0,0.0,89,0.00,,---,0.00,VWS V14.01,2013-09-19 05:25:00,
2013-09-19 01:30:00,50.9,48.1,30.14,WSW,244,0.0,0.0,90,0.00,,---,0.00,VWS V14.01,2013-09-19 05:30:00,
2013-09-19 01:35:00,50.7,47.9,30.14,WSW,244,0.0,0.0,90,0.00,,---,0.00,VWS V14.01,2013-09-19 05:35:00,
2013-09-19 01:40:00,50.5,47.7,30.14,WSW,244,0.0,0.0,90,0.00,,---,0.00,VWS V14.01,2013-09-19 05:40:00,
2013-09-19 01:45:00,50.3,47.5,30.14,WSW,244,0.0,0.0,90,0.00,,---,0.00,VWS V14.01,2013-09-19 05:45:00,
2013-09-19 01:50:00,50.2,47.7,30.13,WSW,244,0.0,0.0,91,0.00,,---,0.00,VWS V14.01,2013-09-19 05:50:00,
2013-09-19 01:55:00,50.2,47.7,30.13,WSW,244,0.0,0.0,91,0.00,,---,0.00,VWS V14.01,2013-09-19 05:55:00,
2013-09-19 02:00:00,50.1,47.6,30.13,WSW,244,0.0,0.0,91,0.00,,---,0.00,VWS V14.01,2013-09-19 06:00:00,
2013-09-19 02:05:00,50.1,47.6,30.13,WSW,244,0.0,1.0,91,0.00,,---,0.00,VWS V14.01,2013-09-19 06:05:00,
2013-09-19 02:10:00,50.0,47.5,30.13,WSW,244,0.0,0.0,91,0.00,,---,0.00,VWS V14.01,2013-09-19 06:10:00,
2013-09-19 02:15:00,50.0,47.8,30.13,WSW,244,0.0,0.0,92,0.00,,---,0.00,VWS V14.01,2013-09-19 06:15:00,
2013-09-19 02:20:00,50.0,47.8,30.13,WSW,244,0.0,0.0,92,0.00,,---,0.00,VWS V14.01,2013-09-19 06:20:00,
2013-09-19 02:25:00,50.0,47.8,30.13,WSW,244,0.0,0.0,92,0.00,,---,0.00,VWS V14.01,2013-09-19 06:25:00,
2013-09-19 02:30:00,49.9,47.7,30.13,WSW,244,0.0,0.0,92,0.00,,---,0.00,VWS V14.01,2013-09-19 06:30:00,
2013-09-19 02:35:00,49.9,47.7,30.13,WSW,244,0.0,0.0,92,0.00,,---,0.00,VWS V14.01,2013-09-19 06:35:00,
2013-09-19 02:40:00,49.8,47.6,30.13,WSW,244,0.0,0.0,92,0.00,,---,0.00,VWS V14.01,2013-09-19 06:40:00,
2013-09-19 02:45:00,49.6,47.4,30.12,WSW,244,0.0,0.0,92,0.00,,---,0.00,VWS V14.01,2013-09-19 06:45:00,
2013-09-19 02:50:00,49.6,47.4,30.12,WSW,244,0.0,0.0,92,0.00,,---,0.00,VWS V14.01,2013-09-19 06:50:00,
2013-09-19 02:55:00,49.5,47.3,30.12,WSW,244,0.0,0.0,92,0.00,,---,0.00,VWS V14.01,2013-09-19 06:55:00,
2013-09-19 03:00:00,49.4,47.2,30.12,WSW,244,0.0,0.0,92,0.00,,---,0.00,VWS V14.01,2013-09-19 07:00:00,
2013-09-19 03:05:00,49.3,47.1,30.12,WSW,244,0.0,0.0,92,0.00,,---,0.00,VWS V14.01,2013-09-19 07:05:00,
2013-09-19 03:10:00,49.2,47.3,30.12,WSW,244,0.0,0.0,93,0.00,,---,0.00,VWS V14.01,2013-09-19 07:10:00,
2013-09-19 03:15:00,49.2,47.3,30.12,WSW,244,0.0,0.0,93,0.00,,---,0.00,VWS V14.01,2013-09-19 07:15:00,
2013-09-19 03:20:00,49.2,47.3,30.12,WSW,244,0.0,0.0,93,0.00,,---,0.00,VWS V14.01,2013-09-19 07:20:00,
2013-09-19 03:25:00,49.1,47.2,30.12,WSW,244,0.0,0.0,93,0.00,,---,0.00,VWS V14.01,2013-09-19 07:25:00,
2013-09-19 03:30:00,48.9,46.7,30.12,WSW,244,0.0,0.0,92,0.00,,---,0.00,VWS V14.01,2013-09-19 07:30:00,
2013-09-19 03:35:00,48.7,46.8,30.12,WSW,244,0.0,0.0,93,0.00,,---,0.00,VWS V14.01,2013-09-19 07:35:00,
2013-09-19 03:40:00,48.6,46.7,30.12,WSW,244,0.0,0.0,93,0.00,,---,0.00,VWS V14.01,2013-09-19 07:40:00,
2013-09-19 03:45:00,48.5,46.6,30.12,WSW,244,0.0,0.0,93,0.00,,---,0.00,VWS V14.01,2013-09-19 07:45:00,
2013-09-19 03:50:00,48.5,46.6,30.11,WSW,244,0.0,0.0,93,0.00,,---,0.00,VWS V14.01,2013-09-19 07:50:00,
2013-09-19 03:55:00,48.4,46.5,30.12,WSW,244,0.0,0.0,93,0.00,,---,0.00,VWS V14.01,2013-09-19 07:55:00,
2013-09-19 04:00:00,48.3,46.7,30.12,WSW,244,0.0,0.0,94,0.00,,---,0.00,VWS V14.01,2013-09-19 08:00:00,
2013-09-19 04:05:00,48.2,47.7,30.12,WSW,244,0.0,0.0,98,0.00,,---,0.00,VWS V14.01,2013-09-19 08:05:00,
2013-09-19 04:10:00,48.1,46.2,30.12,WSW,244,0.0,0.0,93,0.00,,---,0.00,VWS V14.01,2013-09-19 08:10:00,
2013-09-19 04:15:00,48.0,46.4,30.12,WSW,244,0.0,0.0,94,0.00,,---,0.00,VWS V14.01,2013-09-19 08:15:00,
2013-09-19 04:20:00,47.9,46.3,30.12,WSW,244,0.0,1.0,94,0.00,,---,0.00,VWS V14.01,2013-09-19 08:20:00,
2013-09-19 04:25:00,47.9,46.3,30.12,WSW,244,0.0,0.0,94,0.00,,---,0.00,VWS V14.01,2013-09-19 08:25:00,
2013-09-19 04:30:00,48.0,46.4,30.12,WSW,244,0.0,0.0,94,0.00,,---,0.00,VWS V14.01,2013-09-19 08:30:00,
2013-09-19 04:35:00,48.2,46.8,30.12,WSW,244,0.0,0.0,95,0.00,,---,0.00,VWS V14.01,2013-09-19 08:35:00,
2013-09-19 04:40:00,48.4,46.8,30.12,WSW,244,0.0,0.0,94,0.00,,---,0.00,VWS V14.01,2013-09-19 08:40:00,
2013-09-19 04:45:00,48.6,47.0,30.12,WSW,244,0.0,1.0,94,0.00,,---,0.00,VWS V14.01,2013-09-19 08:45:00,
2013-09-19 04:50:00,48.8,47.2,30.12,WSW,244,0.0,0.0,94,0.00,,---,0.00,VWS V14.01,2013-09-19 08:50:00,
2013-09-19 04:55:00,48.9,47.2,30.12,WSW,244,0.0,1.0,94,0.00,,---,0.00,VWS V14.01,2013-09-19 08:55:00,
2013-09-19 05:00:00,49.0,47.1,30.12,WSW,244,0.0,0.0,93,0.00,,---,0.00,VWS V14.01,2013-09-19 09:00:00,
2013-09-19 05:05:00,49.1,47.2,30.12,WSW,244,0.0,1.0,93,0.00,,---,0.00,VWS V14.01,2013-09-19 09:05:00,
2013-09-19 05:10:00,49.2,47.3,30.12,WSW,244,0.0,1.0,93,0.00,,---,0.00,VWS V14.01,2013-09-19 09:10:00,
2013-09-19 05:15:00,49.2,47.0,30.12,WSW,244,0.0,1.0,92,0.00,,---,0.00,VWS V14.01,2013-09-19 09:15:00,
2013-09-19 05:20:00,49.0,46.8,30.12,WSW,244,0.0,0.0,92,0.00,,---,0.00,VWS V14.01,2013-09-19 09:20:00,
2013-09-19 05:25:00,48.8,46.6,30.12,WSW,244,0.0,0.0,92,0.00,,---,0.00,VWS V14.01,2013-09-19 09:25:00,
2013-09-19 05:30:00,48.6,46.1,30.12,WSW,244,0.0,0.0,91,0.00,,---,0.00,VWS V14.01,2013-09-19 09:30:00,
2013-09-19 05:35:00,48.4,46.2,30.12,WSW,244,0.0,0.0,92,0.00,,---,0.00,VWS V14.01,2013-09-19 09:35:00,
2013-09-19 05:40:00,48.3,46.1,30.12,WSW,244,0.0,0.0,92,0.00,,---,0.00,VWS V14.01,2013-09-19 09:40:00,
2013-09-19 05:45:00,48.4,46.5,30.12,West,262,0.0,0.0,93,0.00,,---,0.00,VWS V14.01,2013-09-19 09:45:00,
2013-09-19 05:50:00,48.7,46.8,30.12,West,262,0.0,2.0,93,0.00,,---,0.00,VWS V14.01,2013-09-19 09:50:00,
2013-09-19 05:55:00,48.9,47.0,30.13,West,262,0.0,0.0,93,0.00,,---,0.00,VWS V14.01,2013-09-19 09:55:00,
2013-09-19 06:00:00,49.1,46.9,30.13,WNW,282,0.0,1.0,92,0.00,,---,0.00,VWS V14.01,2013-09-19 10:00:00,
2013-09-19 06:05:00,49.2,46.7,30.13,WNW,282,0.0,1.0,91,0.00,,---,0.00,VWS V14.01,2013-09-19 10:05:00,
2013-09-19 06:10:00,49.3,46.8,30.13,WNW,282,0.0,0.0,91,0.00,,---,0.00,VWS V14.01,2013-09-19 10:10:00,
2013-09-19 06:15:00,49.1,46.0,30.13,WNW,282,0.0,0.0,89,0.00,,---,0.00,VWS V14.01,2013-09-19 10:15:00,
2013-09-19 06:20:00,48.6,45.5,30.13,WNW,282,0.0,0.0,89,0.00,,---,0.00,VWS V14.01,2013-09-19 10:20:00,
2013-09-19 06:25:00,48.2,45.1,30.13,WNW,282,0.0,0.0,89,0.00,,---,0.00,VWS V14.01,2013-09-19 10:25:00,
2013-09-19 06:30:00,48.1,45.6,30.13,WNW,282,0.0,1.0,91,0.00,,---,0.00,VWS V14.01,2013-09-19 10:30:00,
2013-09-19 06:35:00,48.1,45.6,30.13,WNW,282,0.0,0.0,91,0.00,,---,0.00,VWS V14.01,2013-09-19 10:35:00,
2013-09-19 06:40:00,48.1,45.9,30.13,WNW,282,0.0,0.0,92,0.00,,---,0.00,VWS V14.01,2013-09-19 10:40:00,
2013-09-19 06:45:00,48.0,45.5,30.13,WNW,282,0.0,0.0,91,0.00,,---,0.00,VWS V14.01,2013-09-19 10:45:00,
2013-09-19 06:50:00,47.8,45.3,30.13,WNW,282,0.0,0.0,91,0.00,,---,0.00,VWS V14.01,2013-09-19 10:50:00,
2013-09-19 06:55:00,47.6,45.1,30.14,WNW,282,0.0,0.0,91,0.00,,---,0.00,VWS V14.01,2013-09-19 10:55:00,
2013-09-19 07:00:00,47.4,44.9,30.14,WNW,282,0.0,0.0,91,0.00,,---,0.00,VWS V14.01,2013-09-19 11:00:00,
2013-09-19 07:05:00,47.2,44.7,30.14,WNW,282,0.0,0.0,91,0.00,,---,0.00,VWS V14.01,2013-09-19 11:05:00,
2013-09-19 07:10:00,47.1,44.9,30.14,WNW,282,0.0,0.0,92,0.00,,---,0.00,VWS V14.01,2013-09-19 11:10:00,
2013-09-19 07:15:00,47.1,44.9,30.14,WNW,282,0.0,0.0,92,0.00,,---,0.00,VWS V14.01,2013-09-19 11:15:00,
2013-09-19 07:20:00,47.1,44.9,30.13,WNW,282,0.0,0.0,92,0.00,,---,0.00,VWS V14.01,2013-09-19 11:20:00,
2013-09-19 07:25:00,47.2,45.3,30.14,WNW,282,0.0,0.0,93,0.00,,---,0.00,VWS V14.01,2013-09-19 11:25:00,
2013-09-19 07:30:00,47.3,45.4,30.14,WNW,282,0.0,0.0,93,0.00,,---,0.00,VWS V14.01,2013-09-19 11:30:00,
2013-09-19 07:35:00,47.5,45.9,30.14,WNW,282,0.0,0.0,94,0.00,,---,0.00,VWS V14.01,2013-09-19 11:35:00,
2013-09-19 07:40:00,47.9,46.3,30.14,WNW,282,0.0,0.0,94,0.00,,---,0.00,VWS V14.01,2013-09-19 11:40:00,
2013-09-19 07:45:00,48.7,47.3,30.14,WNW,282,0.0,1.0,95,0.00,,---,0.00,VWS V14.01,2013-09-19 11:45:00,
2013-09-19 07:50:00,49.4,48.0,30.14,WNW,282,0.0,1.0,95,0.00,,---,0.00,VWS V14.01,2013-09-19 11:50:00,
2013-09-19 07:55:00,50.1,48.4,30.14,WNW,282,0.0,1.0,94,0.00,,---,0.00,VWS V14.01,2013-09-19 11:55:00,
2013-09-19 08:00:00,50.9,49.0,30.13,WNW,282,0.0,1.0,93,0.00,,---,0.00,VWS V14.01,2013-09-19 12:00:00,
2013-09-19 08:05:00,51.5,49.3,30.13,WNW,282,2.0,2.0,92,0.00,,---,0.00,VWS V14.01,2013-09-19 12:05:00,
2013-09-19 08:10:00,52.6,49.8,30.13,NE,50,0.0,2.0,90,0.00,,---,0.00,VWS V14.01,2013-09-19 12:10:00,
2013-09-19 08:15:00,53.8,50.3,30.13,West,267,0.0,2.0,88,0.00,,---,0.00,VWS V14.01,2013-09-19 12:15:00,
2013-09-19 08:20:00,55.0,50.9,30.13,West,267,0.0,0.0,86,0.00,,---,0.00,VWS V14.01,2013-09-19 12:20:00,
2013-09-19 08:25:00,56.0,51.2,30.13,West,267,0.0,1.0,84,0.00,,---,0.00,VWS V14.01,2013-09-19 12:25:00,
2013-09-19 08:30:00,56.6,51.2,30.13,NE,44,0.0,3.0,82,0.00,,---,0.00,VWS V14.01,2013-09-19 12:30:00,
2013-09-19 08:35:00,57.1,51.3,30.13,West,262,0.0,2.0,81,0.00,,---,0.00,VWS V14.01,2013-09-19 12:35:00,
2013-09-19 08:40:00,57.8,51.7,30.13,WSW,257,0.0,3.0,80,0.00,,---,0.00,VWS V14.01,2013-09-19 12:40:00,
2013-09-19 08:45:00,58.2,51.4,30.13,WSW,246,1.0,3.0,78,0.00,,---,0.00,VWS V14.01,2013-09-19 12:45:00,
2013-09-19 08:50:00,58.7,51.9,30.13,West,268,0.0,3.0,78,0.00,,---,0.00,VWS V14.01,2013-09-19 12:50:00,
2013-09-19 08:55:00,59.6,51.7,30.13,WSW,250,0.0,4.0,75,0.00,,---,0.00,VWS V14.01,2013-09-19 12:55:00,
2013-09-19 09:00:00,60.5,52.2,30.13,West,261,0.0,4.0,74,0.00,,---,0.00,VWS V14.01,2013-09-19 13:00:00,
2013-09-19 09:05:00,61.4,52.3,30.13,West,262,0.0,2.0,72,0.00,,---,0.00,VWS V14.01,2013-09-19 13:05:00,
2013-09-19 09:10:00,62.4,51.7,30.13,WSW,239,2.0,4.0,68,0.00,,---,0.00,VWS V14.01,2013-09-19 13:10:00,
2013-09-19 09:15:00,63.4,52.3,30.13,SW,214,0.0,2.0,67,0.00,,---,0.00,VWS V14.01,2013-09-19 13:15:00,
2013-09-19 09:20:00,64.2,52.2,30.13,NE,35,0.0,2.0,65,0.00,,---,0.00,VWS V14.01,2013-09-19 13:20:00,
2013-09-19 09:25:00,65.1,52.6,30.13,NE,35,0.0,1.0,64,0.00,,---,0.00,VWS V14.01,2013-09-19 13:25:00,
2013-09-19 09:30:00,65.8,52.9,30.13,WNW,287,1.0,4.0,63,0.00,,---,0.00,VWS V14.01,2013-09-19 13:30:00,
2013-09-19 09:35:00,65.8,52.4,30.13,ENE,75,4.0,4.0,62,0.00,,---,0.00,VWS V14.01,2013-09-19 13:35:00,
2013-09-19 09:40:00,66.1,52.7,30.13,NE,52,0.0,4.0,62,0.00,,---,0.00,VWS V14.01,2013-09-19 13:40:00,
2013-09-19 09:45:00,66.6,52.8,30.13,NW,312,1.0,4.0,61,0.00,,---,0.00,VWS V14.01,2013-09-19 13:45:00,
2013-09-19 09:50:00,67.2,53.8,30.13,North,5,0.0,2.0,62,0.00,,---,0.00,VWS V14.01,2013-09-19 13:50:00,
2013-09-19 09:55:00,67.8,53.9,30.13,West,271,0.0,3.0,61,0.00,,---,0.00,VWS V14.01,2013-09-19 13:55:00,
2013-09-19 10:00:00,67.6,52.8,30.13,West,275,0.0,5.0,59,0.00,,---,0.00,VWS V14.01,2013-09-19 14:00:00,
2013-09-19 10:05:00,67.2,54.2,30.13,NNW,329,1.0,4.0,63,0.00,,---,0.00,VWS V14.01,2013-09-19 14:05:00,
2013-09-19 10:10:00,67.5,53.6,30.13,NW,325,0.0,2.0,61,0.00,,---,0.00,VWS V14.01,2013-09-19 14:10:00,
2013-09-19 10:15:00,67.9,54.4,30.13,West,267,2.0,4.0,62,0.00,,---,0.00,VWS V14.01,2013-09-19 14:15:00,
2013-09-19 10:20:00,68.1,54.2,30.13,NE,35,0.0,4.0,61,0.00,,---,0.00,VWS V14.01,2013-09-19 14:20:00,
2013-09-19 10:25:00,68.5,55.0,30.13,NNW,333,0.0,2.0,62,0.00,,---,0.00,VWS V14.01,2013-09-19 14:25:00,
2013-09-19 10:30:00,69.3,54.4,30.13,NE,52,0.0,3.0,59,0.00,,---,0.00,VWS V14.01,2013-09-19 14:30:00,
2013-09-19 10:35:00,69.9,54.9,30.13,ENE,58,0.0,2.0,59,0.00,,---,0.00,VWS V14.01,2013-09-19 14:35:00,
2013-09-19 10:40:00,70.3,54.4,30.13,NE,40,0.0,2.0,57,0.00,,---,0.00,VWS V14.01,2013-09-19 14:40:00,
2013-09-19 10:45:00,70.6,54.2,30.13,ESE,115,1.0,2.0,56,0.00,,---,0.00,VWS V14.01,2013-09-19 14:45:00,
2013-09-19 10:50:00,70.6,54.2,30.13,ENE,71,0.0,4.0,56,0.00,,---,0.00,VWS V14.01,2013-09-19 14:50:00,
2013-09-19 10:55:00,70.8,54.3,30.12,East,80,0.0,2.0,56,0.00,,---,0.00,VWS V14.01,2013-09-19 14:55:00,
2013-09-19 11:00:00,71.0,55.5,30.12,East,79,0.0,2.0,58,0.00,,---,0.00,VWS V14.01,2013-09-19 15:00:00,
2013-09-19 11:05:00,71.4,54.9,30.12,NNE,21,1.0,2.0,56,0.00,,---,0.00,VWS V14.01,2013-09-19 15:05:00,
2013-09-19 11:10:00,71.7,55.7,30.12,NNE,17,0.0,2.0,57,0.00,,---,0.00,VWS V14.01,2013-09-19 15:10:00,
2013-09-19 11:15:00,72.3,55.7,30.12,South,173,1.0,1.0,56,0.00,,---,0.00,VWS V14.01,2013-09-19 15:15:00,
2013-09-19 11:20:00,72.3,55.7,30.12,North,353,1.0,5.0,56,0.00,,---,0.00,VWS V14.01,2013-09-19 15:20:00,
2013-09-19 11:25:00,72.4,54.8,30.12,WSW,257,2.0,4.0,54,0.00,,---,0.00,VWS V14.01,2013-09-19 15:25:00,
2013-09-19 11:30:00,72.4,54.8,30.12,NNE,30,1.0,4.0,54,0.00,,---,0.00,VWS V14.01,2013-09-19 15:30:00,
2013-09-19 11:35:00,72.5,55.9,30.12,SW,219,0.0,3.0,56,0.00,,---,0.00,VWS V14.01,2013-09-19 15:35:00,
2013-09-19 11:40:00,72.4,55.3,30.11,NE,48,0.0,3.0,55,0.00,,---,0.00,VWS V14.01,2013-09-19 15:40:00,
2013-09-19 11:45:00,72.4,55.8,30.11,SW,236,1.0,4.0,56,0.00,,---,0.00,VWS V14.01,2013-09-19 15:45:00,
2013-09-19 11:50:00,72.8,55.2,30.11,South,183,0.0,3.0,54,0.00,,---,0.00,VWS V14.01,2013-09-19 15:50:00,
2013-09-19 11:55:00,73.2,56.1,30.11,SW,233,0.0,3.0,55,0.00,,---,0.00,VWS V14.01,2013-09-19 15:55:00,
2013-09-19 12:00:00,73.9,55.2,30.11,SE,139,2.0,2.0,52,0.00,,---,0.00,VWS V14.01,2013-09-19 16:00:00,
2013-09-19 12:05:00,73.9,56.2,30.11,WSW,246,3.0,4.0,54,0.00,,---,0.00,VWS V14.01,2013-09-19 16:05:00,
2013-09-19 12:10:00,73.8,55.6,30.11,WSW,244,3.0,4.0,53,0.00,,---,0.00,VWS V14.01,2013-09-19 16:10:00,
2013-09-19 12:15:00,73.8,57.1,30.11,NW,323,2.0,4.0,56,0.00,,---,0.00,VWS V14.01,2013-09-19 16:15:00,
2013-09-19 12:20:00,74.0,54.7,30.11,WSW,254,0.0,5.0,51,0.00,,---,0.00,VWS V14.01,2013-09-19 16:20:00,
2013-09-19 12:25:00,74.3,55.0,30.11,NNE,12,2.0,3.0,51,0.00,,---,0.00,VWS V14.01,2013-09-19 16:25:00,
2013-09-19 12:30:00,74.5,54.1,30.11,WSW,250,1.0,3.0,49,0.00,,---,0.00,VWS V14.01,2013-09-19 16:30:00,
2013-09-19 12:35:00,74.5,55.2,30.11,NNE,17,2.0,5.0,51,0.00,,---,0.00,VWS V14.01,2013-09-19 16:35:00,
2013-09-19 12:40:00,74.6,55.3,30.11,North,356,0.0,2.0,51,0.00,,---,0.00,VWS V14.01,2013-09-19 16:40:00,
2013-09-19 12:45:00,75.3,57.0,30.11,WSW,241,2.0,5.0,53,0.00,,---,0.00,VWS V14.01,2013-09-19 16:45:00,
2013-09-19 12:50:00,75.2,56.4,30.11,North,357,0.0,5.0,52,0.00,,---,0.00,VWS V14.01,2013-09-19 16:50:00,
2013-09-19 12:55:00,75.5,55.6,30.11,WNW,294,0.0,3.0,50,0.00,,---,0.00,VWS V14.01,2013-09-19 16:55:00,
2013-09-19 13:00:00,75.5,55.6,30.10,SW,227,2.0,5.0,50,0.00,,---,0.00,VWS V14.01,2013-09-19 17:00:00,
2013-09-19 13:05:00,75.6,55.1,30.10,WNW,299,0.0,6.0,49,0.00,,---,0.00,VWS V14.01,2013-09-19 17:05:00,
2013-09-19 13:10:00,75.6,55.1,30.10,WNW,296,0.0,4.0,49,0.00,,---,0.00,VWS V14.01,2013-09-19 17:10:00,
2013-09-19 13:15:00,75.9,54.2,30.10,NNE,25,0.0,7.0,47,0.00,,---,0.00,VWS V14.01,2013-09-19 17:15:00,
2013-09-19 13:20:00,76.1,54.4,30.10,ENE,65,0.0,2.0,47,0.00,,---,0.00,VWS V14.01,2013-09-19 17:20:00,
2013-09-19 13:25:00,76.2,53.9,30.10,NNE,26,0.0,4.0,46,0.00,,---,0.00,VWS V14.01,2013-09-19 17:25:00,
2013-09-19 13:30:00,76.2,55.1,30.09,NNW,343,0.0,3.0,48,0.00,,---,0.00,VWS V14.01,2013-09-19 17:30:00,
2013-09-19 13:35:00,76.4,56.4,30.09,SW,235,1.0,6.0,50,0.00,,---,0.00,VWS V14.01,2013-09-19 17:35:00,
2013-09-19 13:40:00,76.5,52.4,30.09,SW,233,0.0,4.0,43,0.00,,---,0.00,VWS V14.01,2013-09-19 17:40:00,
2013-09-19 13:45:00,76.5,53.6,30.09,WSW,251,4.0,5.0,45,0.00,,---,0.00,VWS V14.01,2013-09-19 17:45:00,
2013-09-19 13:50:00,76.7,54.4,30.09,SW,223,2.0,4.0,46,0.00,,---,0.00,VWS V14.01,2013-09-19 17:50:00,
2013-09-19 13:55:00,76.9,54.0,30.08,NNE,26,4.0,5.0,45,0.00,,---,0.00,VWS V14.01,2013-09-19 17:55:00,
2013-09-19 14:00:00,77.0,52.8,30.08,SSW,213,1.0,5.0,43,0.00,,---,0.00,VWS V14.01,2013-09-19 18:00:00,
2013-09-19 14:05:00,77.1,53.5,30.08,West,275,0.0,4.0,44,0.00,,---,0.00,VWS V14.01,2013-09-19 18:05:00,
2013-09-19 14:10:00,77.5,52.6,30.08,West,275,1.0,2.0,42,0.00,,---,0.00,VWS V14.01,2013-09-19 18:10:00,
2013-09-19 14:15:00,77.5,52.0,30.08,WSW,257,2.0,5.0,41,0.00,,---,0.00,VWS V14.01,2013-09-19 18:15:00,
2013-09-19 14:20:00,77.5,53.9,30.07,WSW,242,0.0,3.0,44,0.00,,---,0.00,VWS V14.01,2013-09-19 18:20:00,
2013-09-19 14:25:00,77.5,53.9,30.07,WSW,247,0.0,3.0,44,0.00,,---,0.00,VWS V14.01,2013-09-19 18:25:00,
2013-09-19 14:30:00,77.8,54.2,30.07,SW,235,0.0,4.0,44,0.00,,---,0.00,VWS V14.01,2013-09-19 18:30:00,
2013-09-19 14:35:00,77.7,54.1,30.07,WNW,282,0.0,6.0,44,0.00,,---,0.00,VWS V14.01,2013-09-19 18:35:00,
2013-09-19 14:40:00,77.8,54.2,30.07,West,278,0.0,3.0,44,0.00,,---,0.00,VWS V14.01,2013-09-19 18:40:00,
2013-09-19 14:45:00,77.9,53.6,30.07,WSW,257,0.0,4.0,43,0.00,,---,0.00,VWS V14.01,2013-09-19 18:45:00,
2013-09-19 14:50:00,78.0,55.0,30.07,WSW,248,0.0,5.0,45,0.00,,---,0.00,VWS V14.01,2013-09-19 18:50:00,
2013-09-19 14:55:00,78.1,52.5,30.06,West,273,0.0,4.0,41,0.00,,---,0.00,VWS V14.01,2013-09-19 18:55:00,
2013-09-19 15:00:00,78.1,53.8,30.06,NNE,15,0.0,4.0,43,0.00,,---,0.00,VWS V14.01,2013-09-19 19:00:00,
2013-09-19 15:05:00,78.0,53.7,30.06,SSW,211,2.0,3.0,43,0.00,,---,0.00,VWS V14.01,2013-09-19 19:05:00,
2013-09-19 15:10:00,78.3,54.0,30.06,NE,40,0.0,4.0,43,0.00,,---,0.00,VWS V14.01,2013-09-19 19:10:00,
2013-09-19 15:15:00,78.0,53.7,30.06,NW,313,2.0,5.0,43,0.00,,---,0.00,VWS V14.01,2013-09-19 19:15:00,
2013-09-19 15:20:00,78.3,54.6,30.06,WSW,241,1.0,2.0,44,0.00,,---,0.00,VWS V14.01,2013-09-19 19:20:00,
2013-09-19 15:25:00,78.5,54.8,30.06,SW,227,0.0,4.0,44,0.00,,---,0.00,VWS V14.01,2013-09-19 19:25:00,
2013-09-19 15:30:00,78.3,54.6,30.06,NE,56,3.0,7.0,44,0.00,,---,0.00,VWS V14.01,2013-09-19 19:30:00,
2013-09-19 15:35:00,77.8,55.4,30.05,WNW,296,0.0,4.0,46,0.00,,---,0.00,VWS V14.01,2013-09-19 19:35:00,
2013-09-19 15:40:00,77.8,54.8,30.05,NW,304,0.0,5.0,45,0.00,,---,0.00,VWS V14.01,2013-09-19 19:40:00,
2013-09-19 15:45:00,77.9,54.9,30.05,SW,224,2.0,4.0,45,0.00,,---,0.00,VWS V14.01,2013-09-19 19:45:00,
2013-09-19 15:50:00,78.1,54.4,30.05,West,267,3.0,3.0,44,0.00,,---,0.00,VWS V14.01,2013-09-19 19:50:00,
2013-09-19 15:55:00,78.0,55.0,30.05,NNE,15,0.0,4.0,45,0.00,,---,0.00,VWS V14.01,2013-09-19 19:55:00,
2013-09-19 16:00:00,78.3,54.6,30.05,North,11,3.0,4.0,44,0.00,,---,0.00,VWS V14.01,2013-09-19 20:00:00,
2013-09-19 16:05:00,78.3,55.8,30.05,North,5,0.0,3.0,46,0.00,,---,0.00,VWS V14.01,2013-09-19 20:05:00,
2013-09-19 16:10:00,78.6,54.9,30.05,North,5,0.0,1.0,44,0.00,,---,0.00,VWS V14.01,2013-09-19 20:10:00,
2013-09-19 16:15:00,79.0,55.9,30.04,North,5,0.0,1.0,45,0.00,,---,0.00,VWS V14.01,2013-09-19 20:15:00,
2013-09-19 16:20:00,79.1,56.0,30.04,North,5,1.0,1.0,45,0.00,,---,0.00,VWS V14.01,2013-09-19 20:20:00,
2013-09-19 16:25:00,79.1,55.3,30.04,NE,48,0.0,4.0,44,0.00,,---,0.00,VWS V14.01,2013-09-19 20:25:00,
2013-09-19 16:30:00,79.0,55.9,30.04,NW,308,1.0,3.0,45,0.00,,---,0.00,VWS V14.01,2013-09-19 20:30:00,
2013-09-19 16:35:00,78.9,55.8,30.04,NE,40,1.0,3.0,45,0.00,,---,0.00,VWS V14.01,2013-09-19 20:35:00,
2013-09-19 16:40:00,78.7,55.0,30.04,SSE,154,2.0,3.0,44,0.00,,---,0.00,VWS V14.01,2013-09-19 20:40:00,
2013-09-19 16:45:00,78.4,55.3,30.04,WSW,252,0.0,3.0,45,0.00,,---,0.00,VWS V14.01,2013-09-19 20:45:00,
2013-09-19 16:50:00,77.7,55.9,30.05,WNW,285,0.0,2.0,47,0.00,,---,0.00,VWS V14.01,2013-09-19 20:50:00,
2013-09-19 16:55:00,77.1,55.9,30.05,WNW,285,0.0,0.0,48,0.00,,---,0.00,VWS V14.01,2013-09-19 20:55:00,
2013-09-19 17:00:00,76.2,56.8,30.05,WNW,292,0.0,1.0,51,0.00,,---,0.00,VWS V14.01,2013-09-19 21:00:00,
2013-09-19 17:05:00,75.3,56.5,30.05,WNW,292,0.0,1.0,52,0.00,,---,0.00,VWS V14.01,2013-09-19 21:05:00,
2013-09-19 17:10:00,74.4,56.7,30.04,WNW,292,0.0,1.0,54,0.00,,---,0.00,VWS V14.01,2013-09-19 21:10:00,
2013-09-19 17:15:00,73.6,57.4,30.04,WNW,292,0.0,1.0,57,0.00,,---,0.00,VWS V14.01,2013-09-19 21:15:00,
2013-09-19 17:20:00,72.9,55.3,30.04,WNW,292,0.0,1.0,54,0.00,,---,0.00,VWS V14.01,2013-09-19 21:20:00,
2013-09-19 17:25:00,72.5,56.4,30.04,WNW,292,0.0,0.0,57,0.00,,---,0.00,VWS V14.01,2013-09-19 21:25:00,
2013-09-19 17:30:00,72.3,56.7,30.04,West,281,0.0,2.0,58,0.00,,---,0.00,VWS V14.01,2013-09-19 21:30:00,
2013-09-19 17:35:00,71.8,56.7,30.04,WNW,285,0.0,1.0,59,0.00,,---,0.00,VWS V14.01,2013-09-19 21:35:00,
2013-09-19 17:40:00,71.3,56.7,30.04,WNW,285,0.0,0.0,60,0.00,,---,0.00,VWS V14.01,2013-09-19 21:40:00,
2013-09-19 17:45:00,70.8,57.2,30.04,WNW,285,0.0,0.0,62,0.00,,---,0.00,VWS V14.01,2013-09-19 21:45:00,
2013-09-19 17:50:00,70.2,57.5,30.04,WNW,285,0.0,0.0,64,0.00,,---,0.00,VWS V14.01,2013-09-19 21:50:00,
2013-09-19 17:55:00,69.6,57.3,30.04,WNW,285,0.0,0.0,65,0.00,,---,0.00,VWS V14.01,2013-09-19 21:55:00,
2013-09-19 18:00:00,69.1,57.7,30.04,WNW,285,0.0,1.0,67,0.00,,---,0.00,VWS V14.01,2013-09-19 22:00:00,
2013-09-19 18:05:00,68.7,56.9,30.04,WNW,285,0.0,0.0,66,0.00,,---,0.00,VWS V14.01,2013-09-19 22:05:00,
2013-09-19 18:10:00,68.4,57.0,30.04,WNW,285,0.0,1.0,67,0.00,,---,0.00,VWS V14.01,2013-09-19 22:10:00,
2013-09-19 18:15:00,68.1,56.7,30.05,WNW,285,0.0,0.0,67,0.00,,---,0.00,VWS V14.01,2013-09-19 22:15:00,
2013-09-19 18:20:00,67.8,56.9,30.04,WNW,285,0.0,0.0,68,0.00,,---,0.00,VWS V14.01,2013-09-19 22:20:00,
2013-09-19 18:25:00,67.3,57.2,30.05,WNW,285,0.0,0.0,70,0.00,,---,0.00,VWS V14.01,2013-09-19 22:25:00,
2013-09-19 18:30:00,66.9,56.4,30.05,WNW,285,0.0,0.0,69,0.00,,---,0.00,VWS V14.01,2013-09-19 22:30:00,
2013-09-19 18:35:00,66.6,56.9,30.05,WNW,285,0.0,0.0,71,0.00,,---,0.00,VWS V14.01,2013-09-19 22:35:00,
2013-09-19 18:40:00,66.2,56.5,30.05,WNW,285,0.0,0.0,71,0.00,,---,0.00,VWS V14.01,2013-09-19 22:40:00,
2013-09-19 18:45:00,65.8,56.5,30.05,WNW,285,0.0,0.0,72,0.00,,---,0.00,VWS V14.01,2013-09-19 22:45:00,
2013-09-19 18:50:00,65.5,56.2,30.05,WNW,285,0.0,0.0,72,0.00,,---,0.00,VWS V14.01,2013-09-19 22:50:00,
2013-09-19 18:55:00,65.1,55.9,30.05,WNW,285,0.0,0.0,72,0.00,,---,0.00,VWS V14.01,2013-09-19 22:55:00,
2013-09-19 19:00:00,64.7,55.9,30.05,WNW,285,0.0,0.0,73,0.00,,---,0.00,VWS V14.01,2013-09-19 23:00:00,
2013-09-19 19:05:00,64.3,55.8,30.05,WNW,285,0.0,0.0,74,0.00,,---,0.00,VWS V14.01,2013-09-19 23:05:00,
2013-09-19 19:10:00,63.9,55.8,30.05,WNW,285,0.0,0.0,75,0.00,,---,0.00,VWS V14.01,2013-09-19 23:10:00,
2013-09-19 19:15:00,63.4,55.3,30.05,WNW,285,0.0,0.0,75,0.00,,---,0.00,VWS V14.01,2013-09-19 23:15:00,
2013-09-19 19:20:00,63.0,55.3,30.05,WNW,285,0.0,0.0,76,0.00,,---,0.00,VWS V14.01,2013-09-19 23:20:00,
2013-09-19 19:25:00,62.6,54.9,30.06,WNW,285,0.0,0.0,76,0.00,,---,0.00,VWS V14.01,2013-09-19 23:25:00,
2013-09-19 19:30:00,62.2,54.9,30.06,WNW,285,0.0,0.0,77,0.00,,---,0.00,VWS V14.01,2013-09-19 23:30:00,
2013-09-19 19:35:00,61.9,54.6,30.06,WNW,285,0.0,0.0,77,0.00,,---,0.00,VWS V14.01,2013-09-19 23:35:00,
2013-09-19 19:40:00,61.4,54.5,30.06,WNW,285,0.0,0.0,78,0.00,,---,0.00,VWS V14.01,2013-09-19 23:40:00,
2013-09-19 19:45:00,61.2,54.6,30.06,WNW,285,0.0,0.0,79,0.00,,---,0.00,VWS V14.01,2013-09-19 23:45:00,
2013-09-19 19:50:00,60.8,54.3,30.06,WNW,285,0.0,0.0,79,0.00,,---,0.00,VWS V14.01,2013-09-19 23:50:00,
2013-09-19 19:55:00,60.5,54.3,30.06,WNW,285,0.0,0.0,80,0.00,,---,0.00,VWS V14.01,2013-09-19 23:55:00,
2013-09-19 20:00:00,60.3,54.1,30.06,WNW,285,0.0,0.0,80,0.00,,---,0.00,VWS V14.01,2013-09-20 00:00:00,
2013-09-19 20:05:00,60.0,54.2,30.06,WNW,285,0.0,0.0,81,0.00,,---,0.00,VWS V14.01,2013-09-20 00:05:00,
2013-09-19 20:10:00,59.7,53.9,30.06,WNW,285,0.0,0.0,81,0.00,,---,0.00,VWS V14.01,2013-09-20 00:10:00,
2013-09-19 20:15:00,59.4,53.6,30.06,WNW,285,0.0,0.0,81,0.00,,---,0.00,VWS V14.01,2013-09-20 00:15:00,
2013-09-19 20:20:00,59.1,53.3,30.06,WNW,285,0.0,0.0,81,0.00,,---,0.00,VWS V14.01,2013-09-20 00:20:00,
2013-09-19 20:25:00,58.9,53.4,30.06,WNW,285,0.0,0.0,82,0.00,,---,0.00,VWS V14.01,2013-09-20 00:25:00,
2013-09-19 20:30:00,58.6,53.5,30.07,WNW,285,0.0,0.0,83,0.00,,---,0.00,VWS V14.01,2013-09-20 00:30:00,
2013-09-19 20:35:00,58.4,53.3,30.07,WNW,285,0.0,0.0,83,0.00,,---,0.00,VWS V14.01,2013-09-20 00:35:00,
2013-09-19 20:40:00,58.1,53.3,30.07,WNW,285,0.0,0.0,84,0.00,,---,0.00,VWS V14.01,2013-09-20 00:40:00,
2013-09-19 20:45:00,57.9,53.4,30.07,WNW,285,0.0,0.0,85,0.00,,---,0.00,VWS V14.01,2013-09-20 00:45:00,
2013-09-19 20:50:00,57.7,53.5,30.07,WNW,285,0.0,0.0,86,0.00,,---,0.00,VWS V14.01,2013-09-20 00:50:00,
2013-09-19 20:55:00,57.6,53.5,30.07,WNW,285,0.0,0.0,86,0.00,,---,0.00,VWS V14.01,2013-09-20 00:55:00,
2013-09-19 21:00:00,57.4,53.6,30.07,WNW,285,0.0,0.0,87,0.00,,---,0.00,VWS V14.01,2013-09-20 01:00:00,
2013-09-19 21:05:00,57.3,53.5,30.07,WNW,285,0.0,0.0,87,0.00,,---,0.00,VWS V14.01,2013-09-20 01:05:00,
2013-09-19 21:10:00,57.2,53.4,30.07,WNW,285,0.0,0.0,87,0.00,,---,0.00,VWS V14.01,2013-09-20 01:10:00,
2013-09-19 21:15:00,57.1,53.3,30.07,WNW,285,0.0,0.0,87,0.00,,---,0.00,VWS V14.01,2013-09-20 01:15:00,
2013-09-19 21:20:00,57.0,53.5,30.07,WNW,285,0.0,0.0,88,0.00,,---,0.00,VWS V14.01,2013-09-20 01:20:00,
2013-09-19 21:25:00,56.9,53.4,30.07,WNW,285,0.0,0.0,88,0.00,,---,0.00,VWS V14.01,2013-09-20 01:25:00,
2013-09-19 21:30:00,56.8,53.3,30.07,WNW,285,0.0,0.0,88,0.00,,---,0.00,VWS V14.01,2013-09-20 01:30:00,
2013-09-19 21:35:00,56.6,53.1,30.07,WNW,285,0.0,0.0,88,0.00,,---,0.00,VWS V14.01,2013-09-20 01:35:00,
2013-09-19 21:40:00,56.5,53.0,30.07,WNW,285,0.0,0.0,88,0.00,,---,0.00,VWS V14.01,2013-09-20 01:40:00,
2013-09-19 21:45:00,56.3,52.8,30.07,WNW,285,0.0,0.0,88,0.00,,---,0.00,VWS V14.01,2013-09-20 01:45:00,
2013-09-19 21:50:00,56.2,53.0,30.07,WNW,285,0.0,0.0,89,0.00,,---,0.00,VWS V14.01,2013-09-20 01:50:00,
2013-09-19 21:55:00,56.0,52.8,30.07,WNW,285,0.0,0.0,89,0.00,,---,0.00,VWS V14.01,2013-09-20 01:55:00,
2013-09-19 22:00:00,55.9,52.7,30.07,WNW,285,0.0,0.0,89,0.00,,---,0.00,VWS V14.01,2013-09-20 02:00:00,
2013-09-19 22:05:00,55.8,52.9,30.07,WNW,285,0.0,0.0,90,0.00,,---,0.00,VWS V14.01,2013-09-20 02:05:00,
2013-09-19 22:10:00,55.7,52.8,30.07,WNW,285,0.0,0.0,90,0.00,,---,0.00,VWS V14.01,2013-09-20 02:10:00,
2013-09-19 22:15:00,55.6,52.7,30.07,WNW,285,0.0,0.0,90,0.00,,---,0.00,VWS V14.01,2013-09-20 02:15:00,
2013-09-19 22:20:00,55.4,52.5,30.07,WNW,285,0.0,0.0,90,0.00,,---,0.00,VWS V14.01,2013-09-20 02:20:00,
2013-09-19 22:25:00,55.4,52.8,30.07,WNW,285,0.0,0.0,91,0.00,,---,0.00,VWS V14.01,2013-09-20 02:25:00,
2013-09-19 22:30:00,55.3,52.7,30.07,WNW,285,0.0,0.0,91,0.00,,---,0.00,VWS V14.01,2013-09-20 02:30:00,
2013-09-19 22:35:00,55.2,52.6,30.07,WNW,285,0.0,0.0,91,0.00,,---,0.00,VWS V14.01,2013-09-20 02:35:00,
2013-09-19 22:40:00,55.3,53.0,30.07,WNW,285,0.0,0.0,92,0.00,,---,0.00,VWS V14.01,2013-09-20 02:40:00,
2013-09-19 22:45:00,55.3,52.7,30.07,WNW,285,0.0,0.0,91,0.00,,---,0.00,VWS V14.01,2013-09-20 02:45:00,
2013-09-19 22:50:00,55.2,52.6,30.07,WNW,285,0.0,0.0,91,0.00,,---,0.00,VWS V14.01,2013-09-20 02:50:00,
2013-09-19 22:55:00,55.1,52.8,30.07,WNW,285,0.0,0.0,92,0.00,,---,0.00,VWS V14.01,2013-09-20 02:55:00,
2013-09-19 23:00:00,55.1,52.5,30.07,WNW,285,0.0,0.0,91,0.00,,---,0.00,VWS V14.01,2013-09-20 03:00:00,
2013-09-19 23:05:00,55.0,52.7,30.07,WNW,285,0.0,0.0,92,0.00,,---,0.00,VWS V14.01,2013-09-20 03:05:00,
2013-09-19 23:10:00,55.0,52.7,30.07,WNW,285,0.0,0.0,92,0.00,,---,0.00,VWS V14.01,2013-09-20 03:10:00,
2013-09-19 23:15:00,54.9,52.6,30.07,WNW,285,0.0,0.0,92,0.00,,---,0.00,VWS V14.01,2013-09-20 03:15:00,
2013-09-19 23:20:00,54.8,52.5,30.07,WNW,285,0.0,0.0,92,0.00,,---,0.00,VWS V14.01,2013-09-20 03:20:00,
2013-09-19 23:25:00,54.7,52.4,30.07,WNW,285,0.0,0.0,92,0.00,,---,0.00,VWS V14.01,2013-09-20 03:25:00,
2013-09-19 23:30:00,54.6,52.3,30.06,WNW,285,0.0,0.0,92,0.00,,---,0.00,VWS V14.01,2013-09-20 03:30:00,
2013-09-19 23:35:00,54.5,52.2,30.07,WNW,285,0.0,0.0,92,0.00,,---,0.00,VWS V14.01,2013-09-20 03:35:00,
2013-09-19 23:40:00,54.4,52.4,30.07,WNW,285,0.0,0.0,93,0.00,,---,0.00,VWS V14.01,2013-09-20 03:40:00,
2013-09-19 23:45:00,54.4,52.4,30.07,WNW,285,0.0,0.0,93,0.00,,---,0.00,VWS V14.01,2013-09-20 03:45:00,
2013-09-19 23:50:00,54.3,52.0,30.06,WNW,285,0.0,0.0,92,0.00,,---,0.00,VWS V14.01,2013-09-20 03:50:00,
2013-09-19 23:55:00,54.2,52.2,30.06,WNW,285,0.0,0.0,93,0.00,,---,0.00,VWS V14.01,2013-09-20 03:55:00,